createdAt,value
2022-12-18T00:00:06.887Z,-4.60
2022-12-18T00:03:01.714Z,-4.64
2022-12-18T00:05:29.941Z,-4.66
2022-12-18T00:07:57.789Z,-4.65
2022-12-18T00:10:25.729Z,-4.62
2022-12-18T00:12:53.920Z,-4.65
2022-12-18T00:15:21.880Z,-4.68
2022-12-18T00:17:49.781Z,-4.56
2022-12-18T00:20:22.578Z,-4.51
2022-12-18T00:22:50.406Z,-4.55
2022-12-18T00:25:18.264Z,-4.60
2022-12-18T00:27:46.409Z,-4.62
2022-12-18T00:30:15.561Z,-4.71
2022-12-18T00:32:43.660Z,-4.76
2022-12-18T00:35:11.518Z,-4.96
2022-12-18T00:37:39.490Z,-5.06
2022-12-18T00:40:08.783Z,-5.07
2022-12-18T00:42:56.348Z,-4.97
2022-12-18T00:45:31.245Z,-4.97
2022-12-18T00:47:59.224Z,-4.94
2022-12-18T00:50:27.652Z,-4.91
2022-12-18T00:52:55.527Z,-4.90
2022-12-18T00:55:23.737Z,-4.79
2022-12-18T00:57:53.495Z,-4.74
2022-12-18T01:00:22.221Z,-4.77
2022-12-18T01:02:50.457Z,-4.65
2022-12-18T01:05:19.094Z,-4.40
2022-12-18T01:07:46.972Z,-4.60
2022-12-18T01:10:15.504Z,-4.75
2022-12-18T01:12:43.399Z,-4.76
2022-12-18T01:15:14.870Z,-4.82
2022-12-18T01:17:43.753Z,-4.91
2022-12-18T01:20:13.671Z,-4.97
2022-12-18T01:22:41.637Z,-5.06
2022-12-18T01:25:09.677Z,-4.99
2022-12-18T01:27:37.566Z,-4.89
2022-12-18T01:30:06.769Z,-4.97
2022-12-18T01:32:34.657Z,-5.02
2022-12-18T01:35:05.447Z,-4.81
2022-12-18T01:37:33.419Z,-4.75
2022-12-18T01:40:01.388Z,-4.88
2022-12-18T01:42:29.665Z,-5.08
2022-12-18T01:45:03.054Z,-5.49
2022-12-18T01:47:49.086Z,-6.05
2022-12-18T01:50:22.415Z,-5.81
2022-12-18T01:53:12.224Z,-5.94
2022-12-18T01:55:52.659Z,-5.77
2022-12-18T01:58:42.348Z,-5.69
2022-12-18T02:01:10.707Z,-5.58
2022-12-18T02:03:42.080Z,-5.66
2022-12-18T02:06:21.079Z,-5.52
2022-12-18T02:09:18.144Z,-5.44
2022-12-18T02:11:53.921Z,-5.35
2022-12-18T02:14:59.708Z,-5.20
2022-12-18T02:17:42.810Z,-5.38
2022-12-18T02:20:37.463Z,-5.47
2022-12-18T02:23:47.974Z,-5.58
2022-12-18T02:26:35.473Z,-5.64
2022-12-18T02:29:17.482Z,-5.67
2022-12-18T02:31:54.721Z,-5.65
2022-12-18T02:34:29.097Z,-5.55
2022-12-18T02:37:00.095Z,-5.37
2022-12-18T02:39:31.296Z,-5.38
2022-12-18T02:42:08.641Z,-5.41
2022-12-18T02:44:47.784Z,-5.45
2022-12-18T02:47:33.926Z,-5.53
2022-12-18T02:50:17.768Z,-5.76
2022-12-18T02:53:45.068Z,-5.69
2022-12-18T02:56:31.146Z,-5.73
2022-12-18T02:59:23.121Z,-5.71
2022-12-18T03:02:32.634Z,-5.55
2022-12-18T03:05:28.711Z,-5.61
2022-12-18T03:08:04.919Z,-5.44
2022-12-18T03:10:40.589Z,-5.40
2022-12-18T03:13:15.075Z,-5.48
2022-12-18T03:15:49.893Z,-5.52
2022-12-18T03:18:25.844Z,-5.51
2022-12-18T03:20:57.763Z,-5.58
2022-12-18T03:23:32.221Z,-5.65
2022-12-18T03:26:07.953Z,-5.64
2022-12-18T03:28:46.716Z,-6.03
2022-12-18T03:31:17.114Z,-6.12
2022-12-18T03:33:56.588Z,-6.52
2022-12-18T03:36:31.606Z,-6.47
2022-12-18T03:38:59.914Z,-6.39
2022-12-18T03:41:45.988Z,-6.35
2022-12-18T03:44:42.132Z,-6.37
2022-12-18T03:47:22.338Z,-6.31
2022-12-18T03:50:21.917Z,-6.26
2022-12-18T03:53:15.452Z,-6.32
2022-12-18T03:55:46.247Z,-6.34
2022-12-18T03:58:20.874Z,-6.49
2022-12-18T04:01:02.114Z,-6.57
2022-12-18T04:03:32.881Z,-6.46
2022-12-18T04:06:02.910Z,-6.56
2022-12-18T04:08:31.069Z,-6.50
2022-12-18T04:11:04.207Z,-6.26
2022-12-18T04:13:39.072Z,-6.01
2022-12-18T04:16:10.463Z,-5.90
2022-12-18T04:18:41.616Z,-6.03
2022-12-18T04:21:11.362Z,-6.16
2022-12-18T04:23:39.901Z,-6.05
2022-12-18T04:26:08.884Z,-6.17
2022-12-18T04:28:44.579Z,-6.30
2022-12-18T04:31:13.961Z,-6.19
2022-12-18T04:33:42.807Z,-6.44
2022-12-18T04:36:13.233Z,-6.49
2022-12-18T04:38:41.441Z,-6.46
2022-12-18T04:41:12.277Z,-6.30
2022-12-18T04:43:41.908Z,-6.15
2022-12-18T04:46:10.051Z,-6.10
2022-12-18T04:48:39.020Z,-6.14
2022-12-18T04:51:07.563Z,-6.04
2022-12-18T04:53:35.491Z,-5.96
2022-12-18T04:56:13.551Z,-6.06
2022-12-18T04:58:45.331Z,-5.91
2022-12-18T05:01:16.042Z,-5.92
2022-12-18T05:03:45.184Z,-5.89
2022-12-18T05:06:13.457Z,-5.84
2022-12-18T05:08:41.388Z,-5.85
2022-12-18T05:11:14.914Z,-6.04
2022-12-18T05:13:45.162Z,-5.90
2022-12-18T05:16:15.390Z,-5.75
2022-12-18T05:18:43.707Z,-5.66
2022-12-18T05:21:11.749Z,-5.64
2022-12-18T05:23:40.035Z,-5.70
2022-12-18T05:26:08.837Z,-5.80
2022-12-18T05:28:37.558Z,-5.79
2022-12-18T05:31:06.411Z,-5.72
2022-12-18T05:33:36.146Z,-5.87
2022-12-18T05:36:08.706Z,-6.04
2022-12-18T05:38:39.558Z,-6.13
2022-12-18T05:41:09.088Z,-6.38
2022-12-18T05:43:39.466Z,-6.72
2022-12-18T05:46:13.008Z,-6.65
2022-12-18T05:48:42.369Z,-6.57
2022-12-18T05:51:15.474Z,-6.47
2022-12-18T05:53:44.701Z,-6.19
2022-12-18T05:56:20.397Z,-6.14
2022-12-18T05:58:52.396Z,-5.98
2022-12-18T06:01:26.009Z,-5.87
2022-12-18T06:03:54.833Z,-5.87
2022-12-18T06:06:26.668Z,-5.99
2022-12-18T06:08:55.941Z,-6.01
2022-12-18T06:11:26.927Z,-5.88
2022-12-18T06:13:58.896Z,-5.88
2022-12-18T06:16:29.409Z,-5.78
2022-12-18T06:18:59.196Z,-5.75
2022-12-18T06:21:29.825Z,-5.73
2022-12-18T06:23:57.773Z,-5.80
2022-12-18T06:26:28.320Z,-5.83
2022-12-18T06:28:56.913Z,-5.93
2022-12-18T06:31:26.878Z,-6.01
2022-12-18T06:33:54.864Z,-6.03
2022-12-18T06:36:23.116Z,-5.96
2022-12-18T06:38:51.177Z,-5.89
2022-12-18T06:41:21.977Z,-5.82
2022-12-18T06:43:49.901Z,-5.75
2022-12-18T06:46:17.978Z,-5.78
2022-12-18T06:48:51.400Z,-5.79
2022-12-18T06:51:22.016Z,-5.80
2022-12-18T06:53:50.619Z,-5.78
2022-12-18T06:56:18.528Z,-5.80
2022-12-18T06:58:46.529Z,-5.82
2022-12-18T07:01:15.057Z,-5.76
2022-12-18T07:03:44.351Z,-5.72
2022-12-18T07:06:16.848Z,-5.59
2022-12-18T07:08:46.502Z,-5.54
2022-12-18T07:11:15.707Z,-5.54
2022-12-18T07:13:44.265Z,-5.59
2022-12-18T07:16:24.727Z,-5.57
2022-12-18T07:18:56.057Z,-5.54
2022-12-18T07:21:25.073Z,-5.58
2022-12-18T07:23:53.067Z,-5.63
2022-12-18T07:26:23.283Z,-5.65
2022-12-18T07:28:51.348Z,-5.62
2022-12-18T07:31:23.086Z,-5.59
2022-12-18T07:33:52.534Z,-5.88
2022-12-18T07:36:24.318Z,-5.95
2022-12-18T07:38:53.637Z,-5.86
2022-12-18T07:41:21.844Z,-5.80
2022-12-18T07:43:50.769Z,-5.88
2022-12-18T07:46:19.399Z,-5.69
2022-12-18T07:48:50.052Z,-5.54
2022-12-18T07:51:19.789Z,-5.49
2022-12-18T07:53:49.346Z,-5.40
2022-12-18T07:56:30.404Z,-5.35
2022-12-18T07:59:00.223Z,-5.49
2022-12-18T08:01:28.644Z,-5.56
2022-12-18T08:03:57.985Z,-5.64
2022-12-18T08:06:26.669Z,-5.60
2022-12-18T08:08:56.590Z,-5.68
2022-12-18T08:11:27.373Z,-5.53
2022-12-18T08:13:56.378Z,-5.55
2022-12-18T08:16:25.026Z,-5.54
2022-12-18T08:18:54.802Z,-5.48
2022-12-18T08:21:29.338Z,-5.47
2022-12-18T08:24:02.334Z,-5.46
2022-12-18T08:26:32.248Z,-5.50
2022-12-18T08:29:01.468Z,-5.31
2022-12-18T08:31:31.390Z,-5.29
2022-12-18T08:33:59.494Z,-5.31
2022-12-18T08:36:27.522Z,-5.42
2022-12-18T08:38:55.852Z,-5.45
2022-12-18T08:41:23.979Z,-5.35
2022-12-18T08:44:10.746Z,-5.39
2022-12-18T08:46:43.001Z,-5.23
2022-12-18T08:49:12.696Z,-5.10
2022-12-18T08:51:40.878Z,-5.18
2022-12-18T08:54:17.646Z,-5.07
2022-12-18T08:56:45.505Z,-5.00
2022-12-18T08:59:19.432Z,-4.88
2022-12-18T09:01:48.715Z,-4.96
2022-12-18T09:04:17.062Z,-4.83
2022-12-18T09:06:45.066Z,-4.74
2022-12-18T09:09:13.201Z,-4.67
2022-12-18T09:11:41.071Z,-4.61
2022-12-18T09:14:10.845Z,-4.70
2022-12-18T09:16:39.029Z,-4.69
2022-12-18T09:19:07.063Z,-4.60
2022-12-18T09:21:37.346Z,-4.49
2022-12-18T09:24:07.311Z,-4.53
2022-12-18T09:26:37.644Z,-4.54
2022-12-18T09:29:07.950Z,-4.43
2022-12-18T09:31:37.604Z,-4.43
2022-12-18T09:34:07.163Z,-4.55
2022-12-18T09:36:35.393Z,-4.69
2022-12-18T09:39:08.220Z,-4.52
2022-12-18T09:41:58.569Z,-4.41
2022-12-18T09:44:45.552Z,-4.58
2022-12-18T09:47:38.602Z,-4.63
2022-12-18T09:50:20.630Z,-4.54
2022-12-18T09:52:54.502Z,-4.45
2022-12-18T09:55:42.723Z,-4.38
2022-12-18T09:58:39.761Z,-4.14
2022-12-18T10:01:19.151Z,-4.08
2022-12-18T10:03:47.202Z,-3.98
2022-12-18T10:06:25.093Z,-3.90
2022-12-18T10:09:17.637Z,-3.88
2022-12-18T10:11:54.886Z,-3.84
2022-12-18T10:14:31.091Z,-3.79
2022-12-18T10:17:46.544Z,-3.80
2022-12-18T10:20:47.799Z,-3.86
2022-12-18T10:23:48.337Z,-3.71
2022-12-18T10:26:16.654Z,-3.68
2022-12-18T10:28:45.881Z,-3.78
2022-12-18T10:31:25.277Z,-3.80
2022-12-18T10:33:56.210Z,-3.91
2022-12-18T10:36:26.050Z,-3.85
2022-12-18T10:38:54.071Z,-3.74
2022-12-18T10:41:24.125Z,-3.71
2022-12-18T10:44:18.659Z,-3.67
2022-12-18T10:46:56.810Z,-3.52
2022-12-18T10:49:29.818Z,-3.63
2022-12-18T10:52:17.515Z,-3.57
2022-12-18T10:54:52.977Z,-3.43
2022-12-18T10:57:26.966Z,-3.38
2022-12-18T10:59:58.731Z,-3.33
2022-12-18T11:02:39.681Z,-3.39
2022-12-18T11:05:43.346Z,-3.39
2022-12-18T11:08:24.223Z,-3.53
2022-12-18T11:10:52.189Z,-3.56
2022-12-18T11:13:24.895Z,-3.57
2022-12-18T11:15:53.347Z,-3.53
2022-12-18T11:18:34.459Z,-3.49
2022-12-18T11:21:09.690Z,-3.23
2022-12-18T11:23:45.419Z,-3.05
2022-12-18T11:26:14.407Z,-3.08
2022-12-18T11:28:52.002Z,-3.15
2022-12-18T11:31:32.575Z,-3.05
2022-12-18T11:34:29.785Z,-2.99
2022-12-18T11:37:02.013Z,-3.09
2022-12-18T11:39:47.286Z,-3.10
2022-12-18T11:42:26.558Z,-3.09
2022-12-18T11:45:12.093Z,-3.19
2022-12-18T11:47:55.352Z,-3.26
2022-12-18T11:50:25.476Z,-2.97
2022-12-18T11:52:58.233Z,-2.75
2022-12-18T11:56:03.057Z,-2.71
2022-12-18T11:58:47.542Z,-2.80
2022-12-18T12:01:51.838Z,-2.85
2022-12-18T12:04:42.695Z,-2.80
2022-12-18T12:07:25.908Z,-2.88
2022-12-18T12:10:36.381Z,-2.85
2022-12-18T12:13:18.680Z,-2.82
2022-12-18T12:16:18.231Z,-2.98
2022-12-18T12:19:08.337Z,-2.85
2022-12-18T12:21:49.411Z,-2.68
2022-12-18T12:24:57.143Z,-2.75
2022-12-18T12:27:53.016Z,-2.80
2022-12-18T12:30:26.218Z,-3.23
2022-12-18T12:33:11.585Z,-3.20
2022-12-18T12:36:04.635Z,-3.20
2022-12-18T12:38:46.997Z,-3.03
2022-12-18T12:41:44.717Z,-2.92
2022-12-18T12:44:28.953Z,-3.03
2022-12-18T12:47:05.506Z,-3.25
2022-12-18T12:49:39.055Z,-3.03
2022-12-18T12:52:16.787Z,-2.83
2022-12-18T12:54:45.905Z,-2.77
2022-12-18T12:57:31.843Z,-2.77
2022-12-18T13:00:15.776Z,-3.07
2022-12-18T13:03:00.477Z,-3.08
2022-12-18T13:06:00.887Z,-2.82
2022-12-18T13:08:35.284Z,-2.91
2022-12-18T13:11:22.699Z,-3.08
2022-12-18T13:13:54.126Z,-2.91
2022-12-18T13:16:26.767Z,-2.78
2022-12-18T13:18:59.947Z,-2.74
2022-12-18T13:21:35.116Z,-2.92
2022-12-18T13:24:26.254Z,-2.94
2022-12-18T13:26:55.313Z,-3.09
2022-12-18T13:29:46.825Z,-3.02
2022-12-18T13:32:27.379Z,-3.00
2022-12-18T13:35:39.084Z,-3.22
2022-12-18T13:38:32.391Z,-3.30
2022-12-18T13:41:03.108Z,-3.32
2022-12-18T13:43:39.677Z,-3.44
2022-12-18T13:46:31.034Z,-3.53
2022-12-18T13:49:38.236Z,-3.47
2022-12-18T13:52:34.685Z,-3.36
2022-12-18T13:55:15.593Z,-3.32
2022-12-18T13:57:43.826Z,-3.72
2022-12-18T14:00:29.630Z,-3.70
2022-12-18T14:03:00.136Z,-3.52
2022-12-18T14:05:38.672Z,-3.50
2022-12-18T14:08:14.954Z,-3.81
2022-12-18T14:10:48.370Z,-3.81
2022-12-18T14:13:35.012Z,-3.77
2022-12-18T14:16:06.564Z,-3.85
2022-12-18T14:18:46.745Z,-3.89
2022-12-18T14:21:29.015Z,-3.76
2022-12-18T14:24:09.543Z,-4.02
2022-12-18T14:26:37.771Z,-3.82
2022-12-18T14:29:19.612Z,-3.69
2022-12-18T14:32:28.520Z,-3.64
2022-12-18T14:34:56.614Z,-3.53
2022-12-18T14:37:28.029Z,-3.49
2022-12-18T14:40:11.332Z,-3.56
2022-12-18T14:42:39.842Z,-3.61
2022-12-18T14:46:00.103Z,-3.62
2022-12-18T14:48:40.337Z,-3.66
2022-12-18T14:51:25.896Z,-3.78
2022-12-18T14:54:10.990Z,-3.90
2022-12-18T14:56:47.523Z,-3.93
2022-12-18T14:59:25.498Z,-3.92
2022-12-18T15:02:04.644Z,-4.02
2022-12-18T15:04:39.873Z,-4.17
2022-12-18T15:07:24.564Z,-4.31
2022-12-18T15:10:20.413Z,-4.42
2022-12-18T15:13:09.197Z,-4.31
2022-12-18T15:15:37.207Z,-4.18
2022-12-18T15:18:09.407Z,-4.14
2022-12-18T15:20:49.599Z,-4.13
2022-12-18T15:23:26.144Z,-4.33
2022-12-18T15:26:07.349Z,-4.29
2022-12-18T15:28:58.284Z,-4.30
2022-12-18T15:31:36.176Z,-4.34
2022-12-18T15:34:24.404Z,-4.16
2022-12-18T15:36:52.747Z,-4.11
2022-12-18T15:39:20.874Z,-4.13
2022-12-18T15:42:08.135Z,-4.18
2022-12-18T15:44:36.277Z,-4.24
2022-12-18T15:47:04.275Z,-4.27
2022-12-18T15:49:32.222Z,-4.44
2022-12-18T15:52:02.709Z,-4.57
2022-12-18T15:54:49.327Z,-4.57
2022-12-18T15:57:26.473Z,-4.54
2022-12-18T15:59:58.987Z,-4.76
2022-12-18T16:02:29.567Z,-4.67
2022-12-18T16:04:58.992Z,-4.64
2022-12-18T16:07:30.301Z,-4.78
2022-12-18T16:10:00.267Z,-4.81
2022-12-18T16:12:31.264Z,-4.84
2022-12-18T16:14:59.350Z,-4.78
2022-12-18T16:17:27.605Z,-4.78
2022-12-18T16:19:55.544Z,-4.73
2022-12-18T16:22:27.652Z,-4.71
2022-12-18T16:24:58.054Z,-4.78
2022-12-18T16:27:29.278Z,-4.86
2022-12-18T16:29:57.337Z,-4.80
2022-12-18T16:32:25.340Z,-4.86
2022-12-18T16:34:53.337Z,-4.77
2022-12-18T16:37:21.374Z,-4.91
2022-12-18T16:39:49.327Z,-4.88
2022-12-18T16:42:20.559Z,-4.82
2022-12-18T16:44:50.326Z,-4.77
2022-12-18T16:47:19.673Z,-4.88
2022-12-18T16:49:51.588Z,-4.89
2022-12-18T16:52:21.066Z,-4.84
2022-12-18T16:54:49.009Z,-4.85
2022-12-18T16:57:21.103Z,-4.77
2022-12-18T16:59:53.760Z,-4.64
2022-12-18T17:02:26.080Z,-4.58
2022-12-18T17:04:58.004Z,-4.62
2022-12-18T17:07:28.200Z,-4.66
2022-12-18T17:09:56.638Z,-4.76
2022-12-18T17:12:26.909Z,-4.82
2022-12-18T17:14:55.137Z,-4.91
2022-12-18T17:17:26.207Z,-4.93
2022-12-18T17:19:54.420Z,-4.95
2022-12-18T17:22:23.314Z,-5.12
2022-12-18T17:24:51.483Z,-5.27
2022-12-18T17:27:19.564Z,-5.08
2022-12-18T17:29:48.840Z,-5.06
2022-12-18T17:32:17.765Z,-5.08
2022-12-18T17:34:46.450Z,-5.19
2022-12-18T17:37:15.634Z,-5.05
2022-12-18T17:39:44.126Z,-5.06
2022-12-18T17:42:15.582Z,-4.98
2022-12-18T17:44:45.259Z,-5.08
2022-12-18T17:47:14.641Z,-5.21
2022-12-18T17:49:43.209Z,-5.15
2022-12-18T17:52:12.469Z,-5.36
2022-12-18T17:54:42.234Z,-5.31
2022-12-18T17:57:10.704Z,-5.32
2022-12-18T17:59:38.841Z,-5.32
2022-12-18T18:02:09.872Z,-5.24
2022-12-18T18:04:38.214Z,-5.26
2022-12-18T18:07:06.167Z,-5.21
2022-12-18T18:09:34.126Z,-5.16
2022-12-18T18:12:20.506Z,-5.28
2022-12-18T18:14:48.426Z,-5.31
2022-12-18T18:17:16.338Z,-5.13
2022-12-18T18:19:47.437Z,-4.99
2022-12-18T18:22:18.726Z,-4.96
2022-12-18T18:24:46.973Z,-5.15
2022-12-18T18:27:15.297Z,-5.19
2022-12-18T18:29:43.329Z,-5.16
2022-12-18T18:32:11.265Z,-5.23
2022-12-18T18:34:42.143Z,-5.16
2022-12-18T18:37:11.997Z,-5.22
2022-12-18T18:39:40.025Z,-5.40
2022-12-18T18:42:08.449Z,-5.38
2022-12-18T18:44:36.712Z,-5.32
2022-12-18T18:47:06.301Z,-5.33
2022-12-18T18:49:37.604Z,-5.49
2022-12-18T18:52:07.218Z,-5.57
2022-12-18T18:54:35.579Z,-5.48
2022-12-18T18:57:20.471Z,-5.48
2022-12-18T18:59:49.947Z,-5.40
2022-12-18T19:02:18.776Z,-5.34
2022-12-18T19:04:47.389Z,-5.29
2022-12-18T19:07:23.907Z,-5.43
2022-12-18T19:10:04.733Z,-5.39
2022-12-18T19:12:53.745Z,-5.32
2022-12-18T19:15:23.498Z,-5.27
2022-12-18T19:17:53.273Z,-5.41
2022-12-18T19:20:22.261Z,-5.52
2022-12-18T19:22:55.907Z,-5.58
2022-12-18T19:25:40.583Z,-5.69
2022-12-18T19:28:15.834Z,-5.66
2022-12-18T19:30:58.569Z,-5.53
2022-12-18T19:33:43.250Z,-5.49
2022-12-18T19:36:23.117Z,-5.46
2022-12-18T19:38:54.708Z,-5.43
2022-12-18T19:41:25.613Z,-5.40
2022-12-18T19:43:55.659Z,-5.37
2022-12-18T19:46:24.802Z,-5.35
2022-12-18T19:48:53.782Z,-5.44
2022-12-18T19:51:25.396Z,-5.50
2022-12-18T19:53:59.366Z,-5.52
2022-12-18T19:56:33.981Z,-5.71
2022-12-18T19:59:04.222Z,-5.62
2022-12-18T20:01:32.881Z,-5.61
2022-12-18T20:04:01.832Z,-5.57
2022-12-18T20:06:36.303Z,-5.60
2022-12-18T20:09:07.528Z,-5.58
2022-12-18T20:11:41.647Z,-5.60
2022-12-18T20:14:13.826Z,-5.58
2022-12-18T20:16:43.143Z,-5.64
2022-12-18T20:19:14.705Z,-5.74
2022-12-18T20:21:44.829Z,-5.74
2022-12-18T20:24:15.435Z,-5.71
2022-12-18T20:26:45.504Z,-5.70
2022-12-18T20:29:13.452Z,-5.67
2022-12-18T20:31:41.800Z,-5.70
2022-12-18T20:34:11.970Z,-5.74
2022-12-18T20:36:41.036Z,-5.80
2022-12-18T20:39:10.085Z,-5.75
2022-12-18T20:41:40.272Z,-5.68
2022-12-18T20:44:23.152Z,-5.70
2022-12-18T20:46:59.123Z,-5.86
2022-12-18T20:49:28.535Z,-5.95
2022-12-18T20:51:58.172Z,-5.92
2022-12-18T20:54:28.033Z,-5.88
2022-12-18T20:56:57.265Z,-5.80
2022-12-18T20:59:26.032Z,-5.84
2022-12-18T21:01:54.266Z,-5.78
2022-12-18T21:04:23.112Z,-5.86
2022-12-18T21:06:59.202Z,-5.77
2022-12-18T21:09:38.351Z,-5.88
2022-12-18T21:12:47.013Z,-5.89
2022-12-18T21:15:25.319Z,-5.86
2022-12-18T21:17:56.558Z,-5.85
2022-12-18T21:20:24.907Z,-5.73
2022-12-18T21:22:52.911Z,-5.82
2022-12-18T21:25:24.604Z,-5.75
2022-12-18T21:27:53.159Z,-5.68
2022-12-18T21:30:22.821Z,-5.81
2022-12-18T21:32:51.196Z,-5.73
2022-12-18T21:35:19.109Z,-5.70
2022-12-18T21:37:49.380Z,-5.73
2022-12-18T21:40:18.722Z,-5.73
2022-12-18T21:43:08.752Z,-5.68
2022-12-18T21:45:36.739Z,-5.68
2022-12-18T21:48:05.390Z,-5.74
2022-12-18T21:50:33.487Z,-5.85
2022-12-18T21:53:01.415Z,-5.94
2022-12-18T21:55:29.840Z,-5.90
2022-12-18T21:58:00.707Z,-5.90
2022-12-18T22:00:28.886Z,-5.95
2022-12-18T22:03:17.585Z,-5.90
2022-12-18T22:05:46.301Z,-5.90
2022-12-18T22:08:19.765Z,-5.91
2022-12-18T22:10:48.029Z,-6.01
2022-12-18T22:13:16.182Z,-6.10
2022-12-18T22:15:44.134Z,-6.09
2022-12-18T22:18:12.880Z,-6.08
2022-12-18T22:20:41.121Z,-6.08
2022-12-18T22:23:09.061Z,-6.17
2022-12-18T22:25:39.942Z,-6.14
2022-12-18T22:28:26.801Z,-6.13
2022-12-18T22:30:59.122Z,-6.10
2022-12-18T22:33:32.345Z,-6.03
2022-12-18T22:36:07.526Z,-6.06
2022-12-18T22:38:35.353Z,-6.08
2022-12-18T22:41:03.346Z,-6.05
2022-12-18T22:43:31.685Z,-6.11
2022-12-18T22:46:03.210Z,-6.13
2022-12-18T22:48:31.702Z,-6.11
2022-12-18T22:50:59.821Z,-6.12
2022-12-18T22:53:28.645Z,-6.10
2022-12-18T22:56:02.012Z,-6.11
2022-12-18T22:58:30.603Z,-6.15
2022-12-18T23:00:58.968Z,-6.17
2022-12-18T23:03:28.621Z,-6.16
2022-12-18T23:06:06.010Z,-6.12
2022-12-18T23:08:35.549Z,-6.11
2022-12-18T23:11:05.041Z,-6.18
2022-12-18T23:13:34.621Z,-6.10
2022-12-18T23:16:09.487Z,-6.09
2022-12-18T23:18:38.020Z,-6.09
2022-12-18T23:21:17.426Z,-6.10
2022-12-18T23:23:46.890Z,-6.07
2022-12-18T23:26:20.760Z,-6.11
2022-12-18T23:28:51.998Z,-6.03
2022-12-18T23:31:26.952Z,-5.98
2022-12-18T23:34:00.175Z,-6.00
2022-12-18T23:36:37.620Z,-6.03
2022-12-18T23:39:29.429Z,-6.01
2022-12-18T23:41:58.979Z,-5.94
2022-12-18T23:44:28.063Z,-5.99
2022-12-18T23:46:57.237Z,-6.03
2022-12-18T23:49:25.683Z,-5.95
2022-12-18T23:51:55.991Z,-5.95
2022-12-18T23:54:29.322Z,-6.00
2022-12-18T23:57:02.350Z,-6.04
2022-12-18T23:59:31.748Z,-6.04
